Time;durP1;ratioP1;P1;durP2;ratioP2;P2;SDS_P1;SDS_P2;PMS_P1;PMS_P2;Temp;Humidity;BMP_temperature;BMP_pressure;BME280_temperature;BME280_humidity;BME280_pressure;Samples;Min_cycle;Max_cycle;Signal;HPM_P1;HPM_P2
2022/09/07 00:00:53;;;;;;;21.35;11.68;;;19.70;99.90;;;;;;5035203;28;20113;-67
2022/09/07 00:03:20;;;;;;;14.45;11.43;;;19.80;99.90;;;;;;5017293;28;20041;-67
2022/09/07 00:05:47;;;;;;;12.52;11.23;;;20.00;99.90;;;;;;5017495;28;20077;-66
2022/09/07 00:08:15;;;;;;;12.77;11.13;;;19.60;99.90;;;;;;5035053;28;20045;-67
2022/09/07 00:10:40;;;;;;;18.55;12.45;;;19.70;99.90;;;;;;5000856;28;20037;-67
2022/09/07 00:13:07;;;;;;;14.32;12.25;;;19.90;99.90;;;;;;5017299;28;20368;-67
2022/09/07 00:15:38;;;;;;;18.17;11.73;;;19.50;99.90;;;;;;5016265;28;20084;-66
2022/09/07 00:18:03;;;;;;;12.88;11.40;;;19.60;99.90;;;;;;5035154;28;20215;-66
2022/09/07 00:20:29;;;;;;;13.10;11.32;;;19.60;99.90;;;;;;5034870;28;20037;-67
2022/09/07 00:22:54;;;;;;;13.65;10.02;;;19.70;99.90;;;;;;5034939;28;20124;-66
2022/09/07 00:25:20;;;;;;;12.23;11.02;;;19.90;99.90;;;;;;5034667;28;20073;-66
2022/09/07 00:27:46;;;;;;;19.90;11.55;;;19.60;99.90;;;;;;5034765;28;20033;-67
2022/09/07 00:30:11;;;;;;;15.98;12.35;;;19.70;99.90;;;;;;5016829;28;20042;-66
2022/09/07 00:32:37;;;;;;;16.67;12.32;;;19.80;99.90;;;;;;5000283;28;20048;-67
2022/09/07 00:35:02;;;;;;;18.45;13.23;;;19.70;99.90;;;;;;5034673;28;20037;-67
2022/09/07 00:37:28;;;;;;;20.90;12.30;;;19.40;99.90;;;;;;5016965;28;20060;-67
2022/09/07 00:39:54;;;;;;;19.30;12.80;;;19.50;99.90;;;;;;5016873;28;20491;-67
2022/09/07 00:42:20;;;;;;;17.15;12.93;;;19.40;99.90;;;;;;5034554;28;20467;-67
2022/09/07 00:45:05;;;;;;;17.98;13.32;;;19.40;99.90;;;;;;5034348;28;20063;-67
2022/09/07 00:47:35;;;;;;;;;;;19.40;99.90;;;;;;5034851;28;20037;-66
2022/09/07 00:50:08;;;;;;;16.02;14.30;;;19.50;99.90;;;;;;5016741;28;19917;-67
2022/09/07 00:52:36;;;;;;;20.83;15.15;;;19.30;99.90;;;;;;5034193;28;20050;-67
2022/09/07 00:55:06;;;;;;;22.65;14.70;;;20.20;99.90;;;;;;5020692;28;20108;-67
2022/09/07 00:57:33;;;;;;;21.20;15.23;;;19.30;99.90;;;;;;5016527;28;20064;-67
2022/09/07 00:59:59;;;;;;;23.42;17.30;;;19.50;99.90;;;;;;5034070;28;20076;-66
2022/09/07 01:02:25;;;;;;;24.88;13.38;;;19.40;99.90;;;;;;5016129;28;20085;-66
2022/09/07 01:04:56;;;;;;;16.10;12.80;;;19.40;99.90;;;;;;5033984;28;20040;-66
2022/09/07 01:07:22;;;;;;;21.33;7.95;;;18.80;99.90;;;;;;5000089;28;20445;-66
2022/09/07 01:09:49;;;;;;;14.95;9.30;;;18.70;99.90;;;;;;5016221;28;20037;-65
2022/09/07 01:12:15;;;;;;;14.57;5.90;;;18.20;99.90;;;;;;5033691;28;20117;-65
2022/09/07 01:14:45;;;;;;;11.45;5.97;;;17.80;99.90;;;;;;5016190;28;20068;-65
2022/09/07 01:17:32;;;;;;;10.27;6.57;;;17.50;99.90;;;;;;5003072;28;20041;-65
2022/09/07 01:20:03;;;;;;;15.15;9.48;;;17.60;99.90;;;;;;5016229;28;20045;-65
2022/09/07 01:22:38;;;;;;;13.43;10.65;;;17.40;99.90;;;;;;5015790;28;20071;-65
2022/09/07 01:25:09;;;;;;;19.63;11.90;;;17.40;99.90;;;;;;5016199;28;20056;-65
2022/09/07 01:27:44;;;;;;;19.50;12.65;;;17.60;99.90;;;;;;5033778;28;20112;-65
2022/09/07 01:30:18;;;;;;;17.50;10.95;;;17.70;99.90;;;;;;5033608;28;20076;-64
2022/09/07 01:33:18;;;;;;;13.98;9.18;;;17.50;99.90;;;;;;5033958;28;20045;-64
2022/09/07 01:36:13;;;;;;;17.40;10.32;;;17.50;99.90;;;;;;5033485;28;20050;-65
2022/09/07 01:38:54;;;;;;;13.55;9.32;;;17.70;99.90;;;;;;5015719;28;20045;-65
2022/09/07 01:41:31;;;;;;;16.83;10.80;;;17.70;99.90;;;;;;5033309;28;20049;-65
2022/09/07 01:44:13;;;;;;;17.20;11.13;;;17.50;99.90;;;;;;5032570;28;20045;-65
2022/09/07 01:46:51;;;;;;;14.13;8.52;;;17.60;99.90;;;;;;5020775;28;20116;-65
2022/09/07 01:49:21;;;;;;;15.55;9.68;;;17.60;99.90;;;;;;5033341;28;20033;-64
2022/09/07 01:51:51;;;;;;;11.90;8.48;;;17.50;99.90;;;;;;5033444;28;20049;-65
2022/09/07 01:54:43;;;;;;;13.88;7.60;;;17.20;99.90;;;;;;5033251;28;20041;-64
2022/09/07 01:57:18;;;;;;;10.43;6.40;;;17.30;99.90;;;;;;5015497;28;20396;-65
2022/09/07 01:59:49;;;;;;;9.73;5.90;;;17.40;99.90;;;;;;5033376;28;20045;-65
2022/09/07 02:02:23;;;;;;;8.15;5.50;;;17.50;99.90;;;;;;5032981;28;20049;-64
2022/09/07 02:05:00;;;;;;;10.60;5.28;;;17.30;99.90;;;;;;5033089;28;20046;-64
2022/09/07 02:07:29;;;;;;;7.32;4.20;;;17.40;99.90;;;;;;5033037;28;20039;-64
2022/09/07 02:10:05;;;;;;;6.47;4.03;;;17.30;99.90;;;;;;5032906;28;20771;-64
2022/09/07 02:13:05;;;;;;;9.20;4.72;;;17.00;99.90;;;;;;5015203;28;20045;-65
2022/09/07 02:15:45;;;;;;;5.70;4.20;;;17.20;99.90;;;;;;5027677;28;20572;-65
2022/09/07 02:18:13;;;;;;;9.48;3.85;;;17.00;99.90;;;;;;5015360;28;20380;-64
2022/09/07 02:20:42;;;;;;;6.68;4.43;;;17.10;99.90;;;;;;5015203;28;20045;-64
2022/09/07 02:23:20;;;;;;;8.98;5.65;;;17.10;99.90;;;;;;5015073;28;20123;-64
2022/09/07 02:25:53;;;;;;;7.97;5.13;;;17.10;99.90;;;;;;5002771;28;20045;-64
2022/09/07 02:28:28;;;;;;;11.50;6.57;;;17.30;99.90;;;;;;5032977;28;20544;-64
2022/09/07 02:30:53;;;;;;;11.23;6.60;;;17.30;99.90;;;;;;5032649;28;20048;-65
2022/09/07 02:33:19;;;;;;;11.60;6.10;;;17.10;99.90;;;;;;5032909;28;20042;-64
2022/09/07 02:35:45;;;;;;;13.07;7.85;;;16.90;99.90;;;;;;5032793;28;20387;-65
2022/09/07 02:38:11;;;;;;;11.13;8.15;;;17.10;99.90;;;;;;5032757;28;20040;-64
2022/09/07 02:40:37;;;;;;;9.52;7.10;;;17.20;99.90;;;;;;5015306;28;20041;-65
2022/09/07 02:43:07;;;;;;;9.45;7.13;;;17.30;99.90;;;;;;5014805;28;20112;-64
2022/09/07 02:46:04;;;;;;;11.02;7.30;;;17.20;99.90;;;;;;5032536;28;20125;-65
2022/09/07 02:48:36;;;;;;;14.82;7.05;;;17.20;99.90;;;;;;5032766;28;20034;-64
2022/09/07 02:51:34;;;;;;;9.93;7.35;;;17.10;99.90;;;;;;5032508;28;20380;-65
2022/09/07 02:54:18;;;;;;;10.65;7.25;;;17.20;99.90;;;;;;4978281;28;20077;-65
2022/09/07 02:57:22;;;;;;;12.57;7.50;;;17.10;99.90;;;;;;5036169;28;20503;-65
2022/09/07 03:00:01;;;;;;;9.35;6.93;;;17.10;99.90;;;;;;5002217;28;20037;-65
2022/09/07 03:02:40;;;;;;;7.93;5.97;;;17.00;99.90;;;;;;5001423;28;20050;-65
2022/09/07 03:05:20;;;;;;;7.40;5.93;;;17.20;99.90;;;;;;5003653;28;20034;-65
2022/09/07 03:08:11;;;;;;;7.78;5.43;;;17.10;99.90;;;;;;5019970;28;20045;-65
2022/09/07 03:10:41;;;;;;;10.40;5.95;;;17.00;99.90;;;;;;5015378;28;20484;-65
2022/09/07 03:13:06;;;;;;;11.05;6.30;;;17.20;99.90;;;;;;5014942;28;20056;-65
2022/09/07 03:15:32;;;;;;;7.15;5.55;;;17.20;99.90;;;;;;5014173;28;20470;-64
2022/09/07 03:17:58;;;;;;;10.45;6.47;;;17.20;99.90;;;;;;5016399;28;20049;-64
2022/09/07 03:20:23;;;;;;;13.20;7.75;;;17.20;99.90;;;;;;5016396;28;20124;-65
2022/09/07 03:22:51;;;;;;;12.80;8.48;;;17.40;99.90;;;;;;5014889;28;20489;-65
2022/09/07 03:25:17;;;;;;;10.45;7.75;;;17.30;99.90;;;;;;5014857;28;20044;-64
2022/09/07 03:27:43;;;;;;;10.32;7.70;;;17.30;99.90;;;;;;5015398;28;20042;-65
2022/09/07 03:30:10;;;;;;;10.25;6.88;;;17.40;99.90;;;;;;5015031;28;20507;-65
2022/09/07 03:32:37;;;;;;;9.02;7.28;;;17.40;99.90;;;;;;5014815;28;20076;-65
2022/09/07 03:35:05;;;;;;;11.13;7.78;;;17.30;99.90;;;;;;5015915;28;20046;-65
2022/09/07 03:37:31;;;;;;;7.38;6.13;;;17.60;99.90;;;;;;5015088;28;20041;-65
2022/09/07 03:39:56;;;;;;;8.43;6.60;;;17.40;99.90;;;;;;5015961;28;20042;-65
2022/09/07 03:42:22;;;;;;;9.05;6.63;;;17.30;99.90;;;;;;5014859;28;20034;-65
2022/09/07 03:44:48;;;;;;;10.23;5.97;;;17.10;99.90;;;;;;5014621;28;20423;-65
2022/09/07 03:47:15;;;;;;;7.05;5.88;;;17.00;99.90;;;;;;5015933;28;20050;-65
2022/09/07 03:49:40;;;;;;;6.20;5.60;;;17.10;99.90;;;;;;5014654;28;20472;-65
2022/09/07 03:52:06;;;;;;;6.80;5.50;;;17.30;99.90;;;;;;5014314;28;20077;-65
2022/09/07 03:54:32;;;;;;;7.25;5.03;;;17.30;99.90;;;;;;5014697;28;20045;-65
2022/09/07 03:56:57;;;;;;;7.75;4.82;;;17.10;99.90;;;;;;5014400;28;20488;-65
2022/09/07 03:59:23;;;;;;;5.68;4.70;;;17.30;99.90;;;;;;5015539;28;20450;-65
2022/09/07 04:01:49;;;;;;;5.75;4.47;;;17.20;99.90;;;;;;5022872;28;20081;-65
2022/09/07 04:04:14;;;;;;;6.97;4.40;;;17.30;99.90;;;;;;5017342;28;20068;-65
2022/09/07 04:06:40;;;;;;;6.32;3.38;;;17.20;99.90;;;;;;5034238;28;20049;-65
2022/09/07 04:09:07;;;;;;;4.93;3.47;;;17.20;99.90;;;;;;5017358;28;20037;-65
2022/09/07 04:11:34;;;;;;;5.78;3.60;;;17.50;99.90;;;;;;5003972;28;20491;-65
2022/09/07 04:14:00;;;;;;;8.00;3.58;;;17.10;99.90;;;;;;5017388;28;20084;-65
2022/09/07 04:16:27;;;;;;;5.50;3.38;;;17.30;99.90;;;;;;5017220;28;20501;-65
2022/09/07 04:18:57;;;;;;;6.32;3.92;;;17.10;99.90;;;;;;5034983;28;20491;-65
2022/09/07 04:21:24;;;;;;;6.88;3.45;;;17.10;99.90;;;;;;5034554;28;20079;-65
2022/09/07 04:23:50;;;;;;;6.65;3.67;;;17.20;99.90;;;;;;5017161;28;20056;-65
2022/09/07 04:26:17;;;;;;;9.25;3.90;;;17.10;99.90;;;;;;5016961;28;20045;-65
2022/09/07 04:28:44;;;;;;;6.47;3.97;;;17.50;99.90;;;;;;5017098;28;20041;-65
2022/09/07 04:31:10;;;;;;;4.97;3.53;;;17.20;99.90;;;;;;5017093;28;20051;-65
2022/09/07 04:33:36;;;;;;;4.68;3.15;;;17.30;99.90;;;;;;5034733;28;20069;-65
2022/09/07 04:36:02;;;;;;;4.00;3.40;;;17.30;99.90;;;;;;5016924;28;20545;-65
2022/09/07 04:38:28;;;;;;;5.10;3.10;;;17.10;99.90;;;;;;5016810;28;20047;-65
2022/09/07 04:41:09;;;;;;;4.80;3.47;;;17.20;99.90;;;;;;5016803;28;20061;-65
2022/09/07 04:43:36;;;;;;;4.28;3.65;;;17.20;99.90;;;;;;5034703;28;20442;-65
2022/09/07 04:46:04;;;;;;;5.00;4.30;;;17.30;99.90;;;;;;5016757;28;20049;-65
2022/09/07 04:48:29;;;;;;;4.80;4.07;;;17.30;99.90;;;;;;5016781;28;20071;-65
2022/09/07 04:51:02;;;;;;;6.13;3.95;;;17.10;99.90;;;;;;5016572;28;20537;-65
2022/09/07 04:53:27;;;;;;;3.65;3.13;;;17.20;99.90;;;;;;5016518;28;20037;-65
2022/09/07 04:55:53;;;;;;;7.13;3.95;;;17.30;99.90;;;;;;5034305;28;20037;-65
2022/09/07 04:58:18;;;;;;;5.20;4.05;;;17.00;99.90;;;;;;5034449;28;20037;-65
2022/09/07 05:00:44;;;;;;;5.93;4.40;;;17.00;99.90;;;;;;5034056;28;20041;-65
2022/09/07 05:03:09;;;;;;;6.43;4.10;;;17.10;99.90;;;;;;5033855;28;20123;-65
2022/09/07 05:05:36;;;;;;;4.78;4.20;;;17.00;99.90;;;;;;5000118;28;20046;-65
2022/09/07 05:08:02;;;;;;;6.85;4.10;;;16.90;99.90;;;;;;5033858;28;20561;-65
2022/09/07 05:10:27;;;;;;;4.30;3.90;;;16.90;99.90;;;;;;5016479;28;20073;-65
2022/09/07 05:12:53;;;;;;;5.25;3.75;;;16.90;99.90;;;;;;5016109;28;20459;-65
2022/09/07 05:15:18;;;;;;;5.88;4.80;;;16.90;99.90;;;;;;5016147;28;20435;-65
2022/09/07 05:17:44;;;;;;;4.85;3.50;;;16.80;99.90;;;;;;5015908;28;20415;-65
2022/09/07 05:20:09;;;;;;;5.78;4.03;;;17.10;99.90;;;;;;5034052;28;20033;-65
2022/09/07 05:22:39;;;;;;;8.90;5.47;;;17.10;99.90;;;;;;5033678;28;20045;-65
2022/09/07 05:25:06;;;;;;;5.43;4.72;;;16.80;99.90;;;;;;5015928;28;20037;-65
2022/09/07 05:27:32;;;;;;;7.55;4.70;;;17.20;99.90;;;;;;5033999;28;20033;-65
2022/09/07 05:29:57;;;;;;;6.03;5.40;;;17.10;99.90;;;;;;5016005;28;20498;-65
2022/09/07 05:32:23;;;;;;;5.78;5.15;;;17.10;99.90;;;;;;5033643;28;20046;-65
2022/09/07 05:34:49;;;;;;;5.63;4.75;;;17.00;99.90;;;;;;5033471;28;20038;-65
2022/09/07 05:37:15;;;;;;;9.63;5.85;;;17.00;99.90;;;;;;5016075;28;20045;-65
2022/09/07 05:39:40;;;;;;;5.53;4.60;;;17.00;99.90;;;;;;5015808;28;20044;-65
2022/09/07 05:42:06;;;;;;;10.20;6.20;;;17.00;99.90;;;;;;5015735;28;20120;-65
2022/09/07 05:44:32;;;;;;;7.93;4.65;;;17.00;99.90;;;;;;5033493;28;20037;-65
2022/09/07 05:46:57;;;;;;;8.20;5.40;;;17.10;99.90;;;;;;5033166;28;20036;-65
2022/09/07 05:49:23;;;;;;;7.03;5.20;;;17.10;99.90;;;;;;5033379;28;20033;-65
2022/09/07 05:51:48;;;;;;;4.82;4.32;;;17.10;99.90;;;;;;5015369;28;20528;-65
2022/09/07 05:54:14;;;;;;;8.93;5.72;;;17.00;99.90;;;;;;5033459;28;20123;-65
2022/09/07 05:56:40;;;;;;;7.85;5.55;;;17.10;99.90;;;;;;5033240;28;20091;-65
2022/09/07 05:59:05;;;;;;;6.70;5.32;;;17.00;99.90;;;;;;5031078;28;20029;-65
2022/09/07 06:01:33;;;;;;;8.82;6.05;;;17.00;99.90;;;;;;5029581;28;20075;-65
2022/09/07 06:03:59;;;;;;;6.38;5.13;;;17.10;99.90;;;;;;5032392;28;20376;-65
2022/09/07 06:06:25;;;;;;;8.15;5.65;;;17.10;99.90;;;;;;5016581;28;20048;-65
2022/09/07 06:08:52;;;;;;;9.93;6.00;;;17.20;99.90;;;;;;5033146;28;20470;-65
2022/09/07 06:11:20;;;;;;;7.47;5.97;;;17.30;99.90;;;;;;5032936;28;20047;-65
2022/09/07 06:13:46;;;;;;;7.25;6.55;;;17.50;99.90;;;;;;5032858;28;20037;-65
2022/09/07 06:16:13;;;;;;;6.70;5.78;;;17.30;99.90;;;;;;5015093;28;20045;-65
2022/09/07 06:18:41;;;;;;;8.85;6.30;;;17.10;99.90;;;;;;5015243;28;20037;-65
2022/09/07 06:21:18;;;;;;;6.95;6.25;;;17.00;99.90;;;;;;5032570;28;20037;-65
2022/09/07 06:23:45;;;;;;;7.13;6.10;;;17.30;99.90;;;;;;5015094;28;20042;-65
2022/09/07 06:26:11;;;;;;;9.48;7.55;;;17.10;99.90;;;;;;5032700;28;20492;-65
2022/09/07 06:28:44;;;;;;;10.43;7.22;;;17.10;99.90;;;;;;5031253;28;20048;-65
2022/09/07 06:31:12;;;;;;;9.68;6.45;;;17.20;99.90;;;;;;5032630;28;20029;-65
2022/09/07 06:33:39;;;;;;;9.45;6.00;;;17.30;99.90;;;;;;5039407;28;20408;-64
2022/09/07 06:36:19;;;;;;;8.55;7.53;;;17.20;99.90;;;;;;5039110;28;20468;-64
2022/09/07 06:38:45;;;;;;;12.32;7.38;;;17.30;99.90;;;;;;5038865;28;20041;-65
2022/09/07 06:41:17;;;;;;;13.60;9.70;;;17.40;99.90;;;;;;5039113;28;20049;-64
2022/09/07 06:43:43;;;;;;;10.63;7.68;;;17.40;99.90;;;;;;5038640;28;20496;-64
2022/09/07 06:46:09;;;;;;;13.48;9.02;;;17.20;99.90;;;;;;5021432;28;20119;-64
2022/09/07 06:48:35;;;;;;;17.65;11.68;;;17.20;99.90;;;;;;5038865;28;20491;-64
2022/09/07 06:51:07;;;;;;;19.45;11.65;;;17.50;99.90;;;;;;5020861;28;20047;-65
2022/09/07 06:53:35;;;;;;;17.20;14.38;;;17.50;99.90;;;;;;5039050;28;20091;-65
2022/09/07 06:56:05;;;;;;;21.70;15.95;;;17.40;99.90;;;;;;5005031;28;20373;-65
2022/09/07 06:58:31;;;;;;;17.85;13.10;;;17.40;99.90;;;;;;5004769;28;20045;-64
2022/09/07 07:00:56;;;;;;;18.17;12.40;;;17.40;99.90;;;;;;5019778;28;20045;-66
2022/09/07 07:03:22;;;;;;;19.17;14.82;;;17.40;99.90;;;;;;5036934;28;20495;-65
2022/09/07 07:05:53;;;;;;;17.83;15.00;;;17.60;99.90;;;;;;5011180;28;20488;-65
2022/09/07 07:08:20;;;;;;;21.25;15.43;;;17.60;99.90;;;;;;5003454;28;20042;-66
2022/09/07 07:10:46;;;;;;;19.85;15.65;;;17.70;99.90;;;;;;5003482;28;20049;-65
2022/09/07 07:13:12;;;;;;;22.35;16.38;;;17.70;99.90;;;;;;5026068;28;20045;-64
2022/09/07 07:15:37;;;;;;;24.65;18.73;;;17.90;99.90;;;;;;5003016;28;20038;-65
2022/09/07 07:18:03;;;;;;;23.83;16.50;;;18.00;99.90;;;;;;5038977;28;20029;-65
2022/09/07 07:20:29;;;;;;;30.65;21.92;;;18.00;99.90;;;;;;5038909;28;20495;-65
2022/09/07 07:22:54;;;;;;;33.78;22.70;;;18.10;99.90;;;;;;5038532;28;20030;-64
2022/09/07 07:25:21;;;;;;;29.10;22.63;;;18.00;99.90;;;;;;5021112;28;20502;-66
2022/09/07 07:27:47;;;;;;;36.65;24.30;;;18.00;99.90;;;;;;5038740;28;20368;-65
2022/09/07 07:30:14;;;;;;;29.95;22.95;;;18.20;99.90;;;;;;5038743;28;20044;-65
2022/09/07 07:32:40;;;;;;;26.33;22.92;;;18.00;99.90;;;;;;5020932;28;20579;-65
2022/09/07 07:35:07;;;;;;;31.75;24.02;;;17.90;99.90;;;;;;5021185;28;20116;-65
2022/09/07 07:37:35;;;;;;;35.00;25.17;;;18.00;99.90;;;;;;5038819;28;20041;-65
2022/09/07 07:40:02;;;;;;;31.05;23.60;;;17.90;99.90;;;;;;5035079;28;20045;-65
2022/09/07 07:42:27;;;;;;;32.33;23.75;;;17.90;99.90;;;;;;5035715;28;20045;-64
2022/09/07 07:44:54;;;;;;;33.78;23.83;;;18.00;99.90;;;;;;5020052;28;20491;-66
2022/09/07 07:47:19;;;;;;;33.28;24.42;;;18.00;99.90;;;;;;5015493;28;20045;-65
2022/09/07 07:49:45;;;;;;;31.92;24.38;;;18.00;99.90;;;;;;5017424;28;20038;-65
2022/09/07 07:52:10;;;;;;;35.70;26.40;;;18.10;99.90;;;;;;5016154;28;20049;-65
2022/09/07 07:54:36;;;;;;;33.38;24.45;;;18.20;99.90;;;;;;5017717;28;20124;-65
2022/09/07 07:57:02;;;;;;;30.40;23.50;;;18.40;99.90;;;;;;5001636;28;20121;-66
2022/09/07 07:59:28;;;;;;;26.30;22.13;;;18.10;99.90;;;;;;5015604;28;20069;-65
2022/09/07 08:01:53;;;;;;;29.58;22.17;;;18.40;99.90;;;;;;5015578;28;20112;-65
2022/09/07 08:04:19;;;;;;;29.67;22.38;;;18.30;99.90;;;;;;5016798;28;20049;-65
2022/09/07 08:06:45;;;;;;;28.30;21.90;;;18.30;99.90;;;;;;5034670;28;20037;-64
2022/09/07 08:09:10;;;;;;;28.02;21.85;;;18.50;99.90;;;;;;5034674;28;20514;-65
2022/09/07 08:11:38;;;;;;;28.35;21.90;;;18.60;99.90;;;;;;5033441;28;20042;-65
2022/09/07 08:14:05;;;;;;;26.40;20.75;;;18.50;99.90;;;;;;5016922;28;20053;-65
2022/09/07 08:16:31;;;;;;;25.98;20.98;;;18.80;99.90;;;;;;5034230;28;20038;-66
2022/09/07 08:18:56;;;;;;;21.77;19.48;;;18.80;99.90;;;;;;5016417;28;20048;-65
2022/09/07 08:21:22;;;;;;;23.55;19.33;;;18.60;99.90;;;;;;5034508;28;20062;-65
2022/09/07 08:23:48;;;;;;;24.92;19.83;;;18.50;99.90;;;;;;5017163;28;20047;-64
2022/09/07 08:26:13;;;;;;;21.70;19.33;;;18.30;99.90;;;;;;5017002;28;20095;-65
2022/09/07 08:28:41;;;;;;;23.33;17.90;;;18.30;99.90;;;;;;5016642;28;20038;-66
2022/09/07 08:31:09;;;;;;;22.55;16.73;;;18.40;99.90;;;;;;5015458;28;20045;-65
2022/09/07 08:33:38;;;;;;;18.95;16.65;;;18.40;99.90;;;;;;5017485;28;20038;-66
2022/09/07 08:36:15;;;;;;;19.58;17.02;;;18.70;99.90;;;;;;5015998;28;20124;-65
2022/09/07 08:38:41;;;;;;;20.38;16.40;;;18.60;99.90;;;;;;4998666;28;20041;-65
2022/09/07 08:41:28;;;;;;;20.60;17.20;;;18.60;99.90;;;;;;4999200;28;20044;-66
2022/09/07 08:44:01;;;;;;;23.92;17.88;;;18.80;99.90;;;;;;5004289;28;20076;-66
2022/09/07 08:46:39;;;;;;;21.70;16.83;;;18.80;99.90;;;;;;5004780;28;20042;-65
2022/09/07 08:49:12;;;;;;;26.63;17.85;;;19.30;99.90;;;;;;5014944;28;20045;-65
2022/09/07 08:51:53;;;;;;;22.25;17.45;;;19.20;99.90;;;;;;5004256;28;20053;-65
2022/09/07 08:54:19;;;;;;;24.48;18.98;;;19.10;99.90;;;;;;5030118;28;20045;-66
2022/09/07 08:56:48;;;;;;;25.13;16.75;;;19.60;99.90;;;;;;5016489;28;20049;-66
2022/09/07 08:59:30;;;;;;;23.75;16.80;;;20.40;99.90;;;;;;5016395;28;20041;-65
2022/09/07 09:01:56;;;;;;;23.75;17.52;;;19.60;99.90;;;;;;5033818;28;20050;-66
2022/09/07 09:04:28;;;;;;;20.42;16.38;;;19.80;99.90;;;;;;5016390;28;20107;-65
2022/09/07 09:06:53;;;;;;;27.58;16.58;;;19.70;99.90;;;;;;5034129;28;20080;-66
2022/09/07 09:09:34;;;;;;;19.75;13.82;;;19.60;99.90;;;;;;5016533;28;20041;-65
2022/09/07 09:12:05;;;;;;;15.35;11.18;;;19.90;99.90;;;;;;5016238;28;20048;-66
2022/09/07 09:14:43;;;;;;;15.82;11.57;;;19.90;99.90;;;;;;5016117;28;20055;-65
2022/09/07 09:17:21;;;;;;;19.85;13.00;;;19.70;99.90;;;;;;5033871;28;20043;-66
2022/09/07 09:20:13;;;;;;;16.17;12.80;;;19.70;99.90;;;;;;5033867;28;20038;-66
2022/09/07 09:22:39;;;;;;;19.92;12.23;;;20.00;99.90;;;;;;5015288;28;20076;-66
2022/09/07 09:25:25;;;;;;;15.07;10.43;;;20.00;99.90;;;;;;5030165;28;20091;-65
2022/09/07 09:27:50;;;;;;;10.70;9.25;;;20.10;99.90;;;;;;5012431;28;20034;-64
2022/09/07 09:30:19;;;;;;;10.50;8.55;;;19.90;99.90;;;;;;4998449;28;20041;-64
2022/09/07 09:32:47;;;;;;;10.25;8.77;;;20.10;99.90;;;;;;5010961;28;20045;-64
2022/09/07 09:35:33;;;;;;;13.68;8.45;;;19.80;99.90;;;;;;5015815;28;20029;-65
2022/09/07 09:37:59;;;;;;;7.97;6.88;;;20.00;99.90;;;;;;5013799;28;20049;-65
2022/09/07 09:40:28;;;;;;;7.88;7.07;;;20.20;99.90;;;;;;5015225;28;20045;-65
2022/09/07 09:42:58;;;;;;;8.10;7.30;;;20.10;99.90;;;;;;4999035;28;20041;-64
2022/09/07 09:45:27;;;;;;;9.00;7.57;;;20.20;99.90;;;;;;5015418;28;20096;-66
2022/09/07 09:47:53;;;;;;;8.95;7.40;;;20.20;99.90;;;;;;5015496;28;20076;-65
2022/09/07 09:50:36;;;;;;;11.13;8.15;;;20.30;99.90;;;;;;5031755;28;20456;-65
2022/09/07 09:53:04;;;;;;;9.30;7.00;;;20.10;99.90;;;;;;5009326;28;20511;-65
2022/09/07 09:55:32;;;;;;;8.48;7.22;;;20.10;99.90;;;;;;4999045;28;20029;-65
2022/09/07 09:58:03;;;;;;;13.07;7.60;;;20.10;99.90;;;;;;5015640;28;20115;-66
2022/09/07 10:00:31;;;;;;;8.07;7.28;;;19.80;99.90;;;;;;5032805;28;20563;-65
2022/09/07 10:03:14;;;;;;;8.38;7.55;;;20.20;99.90;;;;;;5014827;28;20045;-66
2022/09/07 10:05:42;;;;;;;8.25;6.85;;;20.10;99.90;;;;;;5032187;28;20045;-65
2022/09/07 10:08:18;;;;;;;10.38;6.65;;;20.10;99.90;;;;;;5031667;28;20030;-66
2022/09/07 10:11:12;;;;;;;7.68;6.88;;;20.30;99.90;;;;;;5032432;28;20040;-65
2022/09/07 10:13:54;;;;;;;8.52;6.72;;;20.70;99.90;;;;;;5006521;28;20053;-66
2022/09/07 10:16:40;;;;;;;7.20;6.22;;;21.00;99.90;;;;;;5030404;28;20033;-65
2022/09/07 10:19:20;;;;;;;10.90;6.53;;;21.20;99.90;;;;;;5032566;28;20041;-66
2022/09/07 10:21:55;;;;;;;7.95;6.28;;;21.20;99.90;;;;;;5032837;28;20103;-66
2022/09/07 10:24:24;;;;;;;7.78;5.13;;;21.20;99.90;;;;;;5015126;28;20076;-65
2022/09/07 10:26:50;;;;;;;5.82;4.25;;;21.20;99.90;;;;;;5014634;28;20073;-65
2022/09/07 10:29:34;;;;;;;5.63;4.47;;;21.50;99.90;;;;;;5014483;28;20038;-65
2022/09/07 10:32:12;;;;;;;6.72;4.45;;;21.00;99.90;;;;;;5014793;28;20076;-65
2022/09/07 10:34:46;;;;;;;6.00;4.05;;;21.40;99.90;;;;;;5014991;28;20136;-67
2022/09/07 10:37:36;;;;;;;5.60;3.97;;;21.50;99.90;;;;;;5002697;28;20443;-65
2022/09/07 10:40:27;;;;;;;4.97;4.15;;;21.30;99.90;;;;;;5032382;28;20462;-65
2022/09/07 10:43:15;;;;;;;5.13;3.65;;;21.20;99.90;;;;;;5014694;28;20041;-65
2022/09/07 10:45:51;;;;;;;7.43;4.60;;;21.20;99.90;;;;;;5019916;28;20139;-65
2022/09/07 10:48:42;;;;;;;4.75;3.47;;;21.40;99.90;;;;;;5032574;28;20179;-66
2022/09/07 10:51:20;;;;;;;4.20;3.08;;;21.30;99.90;;;;;;5032488;28;20041;-66
2022/09/07 10:54:01;;;;;;;5.75;3.78;;;21.10;99.90;;;;;;5032568;28;20037;-66
2022/09/07 10:56:35;;;;;;;10.85;3.38;;;21.20;99.90;;;;;;5014905;28;20046;-65
2022/09/07 10:59:19;;;;;;;3.42;2.55;;;21.20;99.90;;;;;;5032478;28;20042;-67
2022/09/07 11:02:01;;;;;;;3.38;2.95;;;21.20;99.90;;;;;;5011205;28;20087;-65
2022/09/07 11:05:08;;;;;;;7.13;2.92;;;21.30;99.90;;;;;;5009580;28;20404;-65
2022/09/07 11:07:52;;;;;;;5.15;2.50;;;21.50;99.90;;;;;;4971105;28;20481;-66
2022/09/07 11:10:48;;;;;;;5.47;2.33;;;21.40;99.90;;;;;;5011082;28;20038;-65
2022/09/07 11:13:22;;;;;;;3.38;2.10;;;21.40;99.90;;;;;;5011342;28;20052;-66
2022/09/07 11:15:55;;;;;;;4.13;2.40;;;21.40;99.90;;;;;;5014064;28;20374;-66
2022/09/07 11:19:06;;;;;;;3.45;2.10;;;21.30;99.90;;;;;;5001869;28;20113;-65
2022/09/07 11:21:38;;;;;;;5.95;1.77;;;21.20;99.90;;;;;;5011324;28;20532;-65
2022/09/07 11:24:12;;;;;;;2.47;1.75;;;21.50;99.90;;;;;;5014924;28;20045;-65
2022/09/07 11:26:44;;;;;;;3.72;1.55;;;21.60;99.90;;;;;;5016055;28;20041;-65
2022/09/07 11:29:20;;;;;;;4.50;1.77;;;21.30;99.90;;;;;;5016189;28;20034;-66
2022/09/07 11:32:00;;;;;;;2.70;1.45;;;21.60;99.90;;;;;;5015981;28;20053;-66
2022/09/07 11:34:39;;;;;;;1.92;0.95;;;21.80;99.90;;;;;;5016325;28;20168;-67
2022/09/07 11:37:12;;;;;;;5.85;1.52;;;23.30;99.90;;;;;;5014291;28;20491;-66
2022/09/07 11:39:54;;;;;;;4.47;1.25;;;22.10;99.90;;;;;;5014589;28;20077;-66
2022/09/07 11:42:31;;;;;;;3.47;1.95;;;22.00;99.90;;;;;;5015623;28;20119;-65
2022/09/07 11:45:05;;;;;;;2.97;1.58;;;22.20;99.90;;;;;;5015699;28;20038;-65
2022/09/07 11:47:42;;;;;;;2.45;1.60;;;22.10;99.90;;;;;;5004283;28;20037;-66
2022/09/07 11:50:16;;;;;;;3.63;1.65;;;22.10;99.90;;;;;;5013943;28;20045;-66
2022/09/07 11:53:03;;;;;;;2.75;1.50;;;21.90;99.90;;;;;;5015740;28;20139;-65
2022/09/07 11:55:34;;;;;;;5.28;1.38;;;22.00;99.90;;;;;;5015101;28;20176;-65
2022/09/07 11:58:51;;;;;;;3.85;1.38;;;22.10;99.90;;;;;;5014692;28;20125;-65
2022/09/07 12:01:44;;;;;;;2.97;1.50;;;22.00;99.90;;;;;;4988518;28;20416;-66
2022/09/07 12:04:15;;;;;;;3.65;0.95;;;21.80;99.90;;;;;;5016777;28;20049;-66
2022/09/07 12:06:44;;;;;;;2.88;0.98;;;22.00;99.90;;;;;;5017445;28;20040;-66
2022/09/07 12:09:56;;;;;;;2.35;1.17;;;21.90;99.90;;;;;;5017422;28;20094;-66
2022/09/07 12:12:56;;;;;;;2.83;1.38;;;21.90;99.90;;;;;;5017403;28;20051;-66
2022/09/07 12:15:31;;;;;;;3.10;1.10;;;21.80;99.90;;;;;;4998065;28;20132;-64
2022/09/07 12:18:16;;;;;;;2.00;0.88;;;21.80;99.90;;;;;;5034824;28;20117;-65
2022/09/07 12:20:44;;;;;;;2.35;1.15;;;21.70;99.90;;;;;;5034788;28;20042;-65
2022/09/07 12:23:15;;;;;;;4.82;1.08;;;21.40;99.90;;;;;;5016898;28;20164;-65
2022/09/07 12:25:46;;;;;;;3.83;1.20;;;23.30;99.90;;;;;;5034537;28;20042;-64
2022/09/07 12:28:16;;;;;;;3.28;1.30;;;22.00;99.90;;;;;;5033703;28;20045;-65
2022/09/07 12:30:45;;;;;;;2.42;1.48;;;22.40;99.90;;;;;;5016454;28;20042;-65
2022/09/07 12:33:40;;;;;;;2.33;1.05;;;22.40;99.90;;;;;;5016936;28;20099;-65
2022/09/07 12:36:27;;;;;;;3.33;1.48;;;22.40;99.90;;;;;;5000542;28;20061;-65
2022/09/07 12:39:18;;;;;;;2.83;1.48;;;22.60;99.90;;;;;;5007458;28;20129;-65
2022/09/07 12:41:47;;;;;;;4.10;1.10;;;22.70;99.90;;;;;;5016471;28;20072;-65
2022/09/07 12:44:22;;;;;;;6.85;2.00;;;22.50;99.90;;;;;;5004688;28;20841;-65
2022/09/07 12:46:51;;;;;;;4.20;1.77;;;22.30;99.90;;;;;;5015624;28;20045;-65
2022/09/07 12:49:26;;;;;;;4.03;1.70;;;22.50;99.90;;;;;;5005972;28;20034;-65
2022/09/07 12:52:16;;;;;;;3.65;1.50;;;22.40;99.90;;;;;;5015705;28;20096;-65
2022/09/07 12:55:11;;;;;;;4.13;1.38;;;22.60;99.90;;;;;;5003621;28;20041;-65
2022/09/07 12:57:46;;;;;;;3.13;1.40;;;22.50;99.90;;;;;;5031710;28;20462;-65
2022/09/07 13:00:51;;;;;;;3.88;0.98;;;22.50;99.90;;;;;;5033858;28;20491;-65
2022/09/07 13:03:30;;;;;;;4.03;1.35;;;22.40;99.90;;;;;;4937405;29;20055;-65